sensor_id;sensor_type;location;lat;lon;timestamp;pressure;altitude;pressure_sealevel;temperature;humidity
69780;BME280;57052;55.602;38.096;2023-12-28T00:01:22;99451.63;;;1.71;64.70
69780;BME280;57052;55.602;38.096;2023-12-28T00:03:48;99450.59;;;1.72;64.83
69780;BME280;57052;55.602;38.096;2023-12-28T00:06:14;99452.69;;;1.70;63.83
69780;BME280;57052;55.602;38.096;2023-12-28T00:08:40;99451.50;;;1.66;63.56
69780;BME280;57052;55.602;38.096;2023-12-28T00:11:06;99449.91;;;1.65;63.93
69780;BME280;57052;55.602;38.096;2023-12-28T00:13:32;99442.59;;;1.60;63.60
69780;BME280;57052;55.602;38.096;2023-12-28T00:15:58;99459.38;;;1.61;63.93
69780;BME280;57052;55.602;38.096;2023-12-28T00:18:24;99459.38;;;1.61;63.37
69780;BME280;57052;55.602;38.096;2023-12-28T00:20:50;99465.66;;;1.55;64.04
69780;BME280;57052;55.602;38.096;2023-12-28T00:23:16;99454.63;;;1.51;64.15
69780;BME280;57052;55.602;38.096;2023-12-28T00:25:42;99459.38;;;1.49;63.62
69780;BME280;57052;55.602;38.096;2023-12-28T00:28:07;99454.16;;;1.43;63.89
69780;BME280;57052;55.602;38.096;2023-12-28T00:30:33;99461.69;;;1.46;63.47
69780;BME280;57052;55.602;38.096;2023-12-28T00:33:00;99466.22;;;1.45;63.76
69780;BME280;57052;55.602;38.096;2023-12-28T00:35:25;99463.75;;;1.44;64.05
69780;BME280;57052;55.602;38.096;2023-12-28T00:37:51;99449.16;;;1.35;64.03
69780;BME280;57052;55.602;38.096;2023-12-28T00:40:17;99465.84;;;1.42;64.03
69780;BME280;57052;55.602;38.096;2023-12-28T00:42:43;99460.41;;;1.37;64.16
69780;BME280;57052;55.602;38.096;2023-12-28T00:45:09;99476.25;;;1.32;64.47
69780;BME280;57052;55.602;38.096;2023-12-28T00:47:35;99463.25;;;1.23;63.89
69780;BME280;57052;55.602;38.096;2023-12-28T00:50:01;99470.47;;;1.35;64.86
69780;BME280;57052;55.602;38.096;2023-12-28T00:52:27;99462.34;;;1.29;64.59
69780;BME280;57052;55.602;38.096;2023-12-28T00:54:53;99463.13;;;1.18;64.62
69780;BME280;57052;55.602;38.096;2023-12-28T00:57:19;99477.78;;;1.27;65.24
69780;BME280;57052;55.602;38.096;2023-12-28T00:59:44;99482.63;;;1.30;64.76
69780;BME280;57052;55.602;38.096;2023-12-28T01:02:10;99481.31;;;1.10;64.77
69780;BME280;57052;55.602;38.096;2023-12-28T01:04:36;99496.81;;;1.13;64.57
69780;BME280;57052;55.602;38.096;2023-12-28T01:07:02;99493.38;;;1.12;65.33
69780;BME280;57052;55.602;38.096;2023-12-28T01:09:30;99497.28;;;1.10;65.39
69780;BME280;57052;55.602;38.096;2023-12-28T01:11:58;99503.88;;;1.07;65.36
69780;BME280;57052;55.602;38.096;2023-12-28T01:14:24;99500.53;;;1.12;65.36
69780;BME280;57052;55.602;38.096;2023-12-28T01:16:50;99505.50;;;1.08;65.31
69780;BME280;57052;55.602;38.096;2023-12-28T01:19:16;99510.97;;;1.13;65.09
69780;BME280;57052;55.602;38.096;2023-12-28T01:21:42;99516.44;;;1.18;65.48
69780;BME280;57052;55.602;38.096;2023-12-28T01:24:08;99523.16;;;1.21;65.72
69780;BME280;57052;55.602;38.096;2023-12-28T01:26:33;99519.81;;;1.25;65.07
69780;BME280;57052;55.602;38.096;2023-12-28T01:29:00;99529.81;;;1.30;65.69
69780;BME280;57052;55.602;38.096;2023-12-28T01:31:29;99526.47;;;1.35;65.19
69780;BME280;57052;55.602;38.096;2023-12-28T01:33:55;99522.03;;;1.28;65.74
69780;BME280;57052;55.602;38.096;2023-12-28T01:36:21;99513.75;;;1.18;65.71
69780;BME280;57052;55.602;38.096;2023-12-28T01:38:48;99520.16;;;1.17;65.34
69780;BME280;57052;55.602;38.096;2023-12-28T01:41:14;99531.16;;;1.21;65.45
69780;BME280;57052;55.602;38.096;2023-12-28T01:43:41;99526.88;;;1.20;65.35
69780;BME280;57052;55.602;38.096;2023-12-28T01:46:12;99524.38;;;1.07;65.69
69780;BME280;57052;55.602;38.096;2023-12-28T01:48:41;99513.03;;;1.11;65.68
69780;BME280;57052;55.602;38.096;2023-12-28T01:51:07;99494.69;;;1.03;66.06
69780;BME280;57052;55.602;38.096;2023-12-28T01:53:33;99512.59;;;1.14;65.72
69780;BME280;57052;55.602;38.096;2023-12-28T01:55:59;99522.00;;;1.17;66.16
69780;BME280;57052;55.602;38.096;2023-12-28T01:58:26;99525.81;;;1.21;65.69
69780;BME280;57052;55.602;38.096;2023-12-28T02:00:56;99530.13;;;1.22;66.42
69780;BME280;57052;55.602;38.096;2023-12-28T02:03:21;99537.03;;;1.11;66.54
69780;BME280;57052;55.602;38.096;2023-12-28T02:05:47;99530.53;;;1.07;66.14
69780;BME280;57052;55.602;38.096;2023-12-28T02:08:13;99541.34;;;1.12;66.10
69780;BME280;57052;55.602;38.096;2023-12-28T02:10:39;99544.00;;;1.12;66.06
69780;BME280;57052;55.602;38.096;2023-12-28T02:13:05;99552.59;;;1.14;66.08
69780;BME280;57052;55.602;38.096;2023-12-28T02:15:31;99555.00;;;1.16;66.04
69780;BME280;57052;55.602;38.096;2023-12-28T02:18:24;99546.66;;;1.12;66.24
69780;BME280;57052;55.602;38.096;2023-12-28T02:20:58;99529.34;;;1.03;66.41
69780;BME280;57052;55.602;38.096;2023-12-28T02:23:24;99539.03;;;1.16;65.96
69780;BME280;57052;55.602;38.096;2023-12-28T02:25:49;99547.72;;;1.23;66.40
69780;BME280;57052;55.602;38.096;2023-12-28T02:28:15;99541.38;;;1.24;66.46
69780;BME280;57052;55.602;38.096;2023-12-28T02:30:41;99552.63;;;1.26;66.29
69780;BME280;57052;55.602;38.096;2023-12-28T02:35:59;99560.00;;;1.12;66.14
69780;BME280;57052;55.602;38.096;2023-12-28T02:38:28;99563.44;;;1.13;66.73
69780;BME280;57052;55.602;38.096;2023-12-28T02:40:55;99539.19;;;1.03;66.20
69780;BME280;57052;55.602;38.096;2023-12-28T02:43:22;99552.59;;;1.14;66.71
69780;BME280;57052;55.602;38.096;2023-12-28T02:45:47;99566.63;;;1.21;66.59
69780;BME280;57052;55.602;38.096;2023-12-28T02:48:13;99550.72;;;1.15;66.36
69780;BME280;57052;55.602;38.096;2023-12-28T02:50:39;99571.50;;;1.24;66.87
69780;BME280;57052;55.602;38.096;2023-12-28T02:53:05;99570.31;;;1.20;66.24
69780;BME280;57052;55.602;38.096;2023-12-28T02:55:31;99573.47;;;1.17;66.69
69780;BME280;57052;55.602;38.096;2023-12-28T02:57:57;99575.66;;;1.20;66.27
69780;BME280;57052;55.602;38.096;2023-12-28T03:00:26;99563.00;;;1.16;66.52
69780;BME280;57052;55.602;38.096;2023-12-28T03:02:52;99569.16;;;1.16;67.13
69780;BME280;57052;55.602;38.096;2023-12-28T03:05:18;99569.00;;;1.11;66.90
69780;BME280;57052;55.602;38.096;2023-12-28T03:07:44;99570.13;;;1.04;66.90
69780;BME280;57052;55.602;38.096;2023-12-28T03:10:10;99554.81;;;0.99;67.27
69780;BME280;57052;55.602;38.096;2023-12-28T03:12:38;99580.69;;;1.10;66.97
69780;BME280;57052;55.602;38.096;2023-12-28T03:15:05;99573.38;;;1.06;67.22
69780;BME280;57052;55.602;38.096;2023-12-28T03:17:32;99583.16;;;1.12;67.36
69780;BME280;57052;55.602;38.096;2023-12-28T03:19:59;99593.59;;;1.13;67.15
69780;BME280;57052;55.602;38.096;2023-12-28T03:22:25;99595.09;;;1.09;67.45
69780;BME280;57052;55.602;38.096;2023-12-28T03:24:53;99594.63;;;1.12;67.38
69780;BME280;57052;55.602;38.096;2023-12-28T03:27:19;99603.28;;;1.08;67.49
69780;BME280;57052;55.602;38.096;2023-12-28T03:29:45;99582.50;;;0.98;67.99
69780;BME280;57052;55.602;38.096;2023-12-28T03:32:11;99605.06;;;1.14;67.50
69780;BME280;57052;55.602;38.096;2023-12-28T03:34:37;99600.41;;;1.09;68.10
69780;BME280;57052;55.602;38.096;2023-12-28T03:37:03;99590.50;;;0.98;68.11
69780;BME280;57052;55.602;38.096;2023-12-28T03:39:29;99606.63;;;1.03;68.01
69780;BME280;57052;55.602;38.096;2023-12-28T03:41:55;99599.53;;;0.97;68.12
69780;BME280;57052;55.602;38.096;2023-12-28T03:44:21;99594.84;;;0.93;68.08
69780;BME280;57052;55.602;38.096;2023-12-28T03:46:50;99590.03;;;0.83;68.01
69780;BME280;57052;55.602;38.096;2023-12-28T03:49:17;99602.25;;;0.91;67.98
69780;BME280;57052;55.602;38.096;2023-12-28T03:51:43;99588.00;;;0.85;68.21
69780;BME280;57052;55.602;38.096;2023-12-28T03:54:09;99609.72;;;1.00;68.35
69780;BME280;57052;55.602;38.096;2023-12-28T03:56:35;99611.38;;;1.01;68.18
69780;BME280;57052;55.602;38.096;2023-12-28T03:59:01;99541.06;;;0.66;68.18
69780;BME280;57052;55.602;38.096;2023-12-28T04:01:27;99608.63;;;1.08;68.30
69780;BME280;57052;55.602;38.096;2023-12-28T04:03:53;99613.72;;;1.09;68.11
69780;BME280;57052;55.602;38.096;2023-12-28T04:06:18;99598.47;;;0.98;68.43
69780;BME280;57052;55.602;38.096;2023-12-28T04:08:44;99611.91;;;1.10;67.70
69780;BME280;57052;55.602;38.096;2023-12-28T04:11:13;99613.50;;;1.11;67.91
69780;BME280;57052;55.602;38.096;2023-12-28T04:13:39;99614.91;;;1.13;68.26
69780;BME280;57052;55.602;38.096;2023-12-28T04:16:05;99612.47;;;1.12;68.29
69780;BME280;57052;55.602;38.096;2023-12-28T04:18:31;99612.25;;;1.13;68.26
69780;BME280;57052;55.602;38.096;2023-12-28T04:20:58;99618.38;;;1.14;68.34
69780;BME280;57052;55.602;38.096;2023-12-28T04:23:25;99622.09;;;1.13;67.65
69780;BME280;57052;55.602;38.096;2023-12-28T04:25:50;99623.13;;;1.12;68.44
69780;BME280;57052;55.602;38.096;2023-12-28T04:28:16;99629.50;;;1.11;68.06
69780;BME280;57052;55.602;38.096;2023-12-28T04:30:42;99633.22;;;1.10;68.10
69780;BME280;57052;55.602;38.096;2023-12-28T04:33:08;99626.69;;;1.06;67.78
69780;BME280;57052;55.602;38.096;2023-12-28T04:35:33;99630.03;;;1.01;68.27
69780;BME280;57052;55.602;38.096;2023-12-28T04:37:59;99637.44;;;0.99;68.20
69780;BME280;57052;55.602;38.096;2023-12-28T04:40:25;99637.00;;;1.02;68.11
69780;BME280;57052;55.602;38.096;2023-12-28T04:42:51;99623.72;;;0.96;68.01
69780;BME280;57052;55.602;38.096;2023-12-28T04:45:16;99639.66;;;1.02;68.28
69780;BME280;57052;55.602;38.096;2023-12-28T04:47:42;99640.69;;;1.01;68.22
69780;BME280;57052;55.602;38.096;2023-12-28T04:50:08;99637.44;;;0.99;68.54
69780;BME280;57052;55.602;38.096;2023-12-28T04:52:34;99648.91;;;1.00;67.87
69780;BME280;57052;55.602;38.096;2023-12-28T04:55:00;99649.09;;;0.98;68.07
69780;BME280;57052;55.602;38.096;2023-12-28T04:57:25;99648.09;;;0.99;68.25
69780;BME280;57052;55.602;38.096;2023-12-28T04:59:53;99652.59;;;0.99;68.08
69780;BME280;57052;55.602;38.096;2023-12-28T05:02:19;99642.38;;;0.96;68.34
69780;BME280;57052;55.602;38.096;2023-12-28T05:04:45;99631.41;;;0.86;68.41
69780;BME280;57052;55.602;38.096;2023-12-28T05:07:11;99652.81;;;0.97;68.55
69780;BME280;57052;55.602;38.096;2023-12-28T05:09:37;99653.03;;;0.96;68.42
69780;BME280;57052;55.602;38.096;2023-12-28T05:12:03;99647.50;;;0.97;68.60
69780;BME280;57052;55.602;38.096;2023-12-28T05:14:29;99642.88;;;0.86;68.37
69780;BME280;57052;55.602;38.096;2023-12-28T05:16:54;99651.03;;;0.91;68.38
69780;BME280;57052;55.602;38.096;2023-12-28T05:19:20;99636.44;;;0.76;68.49
69780;BME280;57052;55.602;38.096;2023-12-28T05:21:46;99649.84;;;0.87;68.35
69780;BME280;57052;55.602;38.096;2023-12-28T05:24:13;99655.63;;;0.84;68.47
69780;BME280;57052;55.602;38.096;2023-12-28T05:26:39;99648.22;;;0.86;68.63
69780;BME280;57052;55.602;38.096;2023-12-28T05:29:04;99651.28;;;0.90;68.12
69780;BME280;57052;55.602;38.096;2023-12-28T05:31:30;99641.72;;;0.82;68.04
69780;BME280;57052;55.602;38.096;2023-12-28T05:33:56;99664.50;;;0.96;68.21
69780;BME280;57052;55.602;38.096;2023-12-28T05:36:24;99669.41;;;0.99;68.22
69780;BME280;57052;55.602;38.096;2023-12-28T05:38:51;99660.97;;;1.02;68.33
69780;BME280;57052;55.602;38.096;2023-12-28T05:41:17;99672.81;;;1.06;68.45
69780;BME280;57052;55.602;38.096;2023-12-28T05:43:43;99674.44;;;1.07;67.83
69780;BME280;57052;55.602;38.096;2023-12-28T05:46:09;99673.91;;;0.99;68.20
69780;BME280;57052;55.602;38.096;2023-12-28T05:48:35;99677.31;;;1.06;68.14
69780;BME280;57052;55.602;38.096;2023-12-28T05:51:01;99672.50;;;0.96;68.26
69780;BME280;57052;55.602;38.096;2023-12-28T05:53:27;99679.69;;;0.96;68.00
69780;BME280;57052;55.602;38.096;2023-12-28T05:55:53;99689.31;;;0.97;68.13
69780;BME280;57052;55.602;38.096;2023-12-28T05:58:19;99683.00;;;0.91;68.14
69780;BME280;57052;55.602;38.096;2023-12-28T06:00:45;99691.00;;;0.91;67.94
69780;BME280;57052;55.602;38.096;2023-12-28T06:03:14;99686.09;;;0.88;68.35
69780;BME280;57052;55.602;38.096;2023-12-28T06:05:41;99705.56;;;0.89;68.22
69780;BME280;57052;55.602;38.096;2023-12-28T06:08:07;99704.56;;;0.90;68.34
69780;BME280;57052;55.602;38.096;2023-12-28T06:10:33;99710.97;;;1.00;68.11
69780;BME280;57052;55.602;38.096;2023-12-28T06:12:59;99710.34;;;1.05;67.80
69780;BME280;57052;55.602;38.096;2023-12-28T06:15:25;99716.47;;;1.05;67.54
69780;BME280;57052;55.602;38.096;2023-12-28T06:17:51;99719.22;;;0.99;67.76
69780;BME280;57052;55.602;38.096;2023-12-28T06:20:17;99708.16;;;0.95;67.51
69780;BME280;57052;55.602;38.096;2023-12-28T06:22:43;99726.47;;;0.92;68.18
69780;BME280;57052;55.602;38.096;2023-12-28T06:25:11;99725.63;;;0.91;67.51
69780;BME280;57052;55.602;38.096;2023-12-28T06:27:37;99711.81;;;0.83;67.79
69780;BME280;57052;55.602;38.096;2023-12-28T06:30:03;99736.59;;;1.01;67.78
69780;BME280;57052;55.602;38.096;2023-12-28T06:32:31;99745.09;;;0.92;68.01
69780;BME280;57052;55.602;38.096;2023-12-28T06:34:56;99746.03;;;0.79;67.88
69780;BME280;57052;55.602;38.096;2023-12-28T06:37:22;99751.13;;;0.81;67.63
69780;BME280;57052;55.602;38.096;2023-12-28T06:39:48;99730.75;;;0.68;68.19
69780;BME280;57052;55.602;38.096;2023-12-28T06:42:14;99761.53;;;0.89;67.67
69780;BME280;57052;55.602;38.096;2023-12-28T06:44:40;99759.25;;;0.92;67.54
69780;BME280;57052;55.602;38.096;2023-12-28T06:47:06;99765.34;;;0.99;68.15
69780;BME280;57052;55.602;38.096;2023-12-28T06:49:32;99743.41;;;0.97;67.64
69780;BME280;57052;55.602;38.096;2023-12-28T06:51:58;99749.63;;;0.91;67.95
69780;BME280;57052;55.602;38.096;2023-12-28T06:54:23;99774.91;;;1.07;67.18
69780;BME280;57052;55.602;38.096;2023-12-28T06:56:49;99780.16;;;1.13;67.45
69780;BME280;57052;55.602;38.096;2023-12-28T06:59:17;99775.41;;;1.15;67.71
69780;BME280;57052;55.602;38.096;2023-12-28T07:01:43;99770.91;;;1.16;67.54
69780;BME280;57052;55.602;38.096;2023-12-28T07:04:09;99782.47;;;1.28;67.76
69780;BME280;57052;55.602;38.096;2023-12-28T07:06:35;99787.59;;;1.29;67.40
69780;BME280;57052;55.602;38.096;2023-12-28T07:09:01;99788.34;;;1.37;66.62
69780;BME280;57052;55.602;38.096;2023-12-28T07:11:30;99773.22;;;1.30;67.33
69780;BME280;57052;55.602;38.096;2023-12-28T07:13:56;99796.06;;;1.45;66.63
69780;BME280;57052;55.602;38.096;2023-12-28T07:16:21;99799.22;;;1.53;66.78
69780;BME280;57052;55.602;38.096;2023-12-28T07:18:47;99798.78;;;1.56;66.94
69780;BME280;57052;55.602;38.096;2023-12-28T07:21:13;99801.84;;;1.60;66.07
69780;BME280;57052;55.602;38.096;2023-12-28T07:23:39;99805.34;;;1.60;66.73
69780;BME280;57052;55.602;38.096;2023-12-28T07:26:04;99803.59;;;1.66;66.25
69780;BME280;57052;55.602;38.096;2023-12-28T07:28:30;99801.63;;;1.61;65.95
69780;BME280;57052;55.602;38.096;2023-12-28T07:30:56;99804.66;;;1.65;66.24
69780;BME280;57052;55.602;38.096;2023-12-28T07:33:22;99814.75;;;1.63;65.93
69780;BME280;57052;55.602;38.096;2023-12-28T07:35:48;99811.03;;;1.64;65.95
69780;BME280;57052;55.602;38.096;2023-12-28T07:38:14;99819.41;;;1.67;65.87
69780;BME280;57052;55.602;38.096;2023-12-28T07:40:41;99817.47;;;1.56;66.17
69780;BME280;57052;55.602;38.096;2023-12-28T07:43:06;99822.59;;;1.58;65.46
69780;BME280;57052;55.602;38.096;2023-12-28T07:45:32;99845.91;;;1.44;65.38
69780;BME280;57052;55.602;38.096;2023-12-28T07:48:01;99836.50;;;1.42;65.37
69780;BME280;57052;55.602;38.096;2023-12-28T07:50:27;99808.84;;;1.36;65.56
69780;BME280;57052;55.602;38.096;2023-12-28T07:52:53;99831.38;;;1.40;65.31
69780;BME280;57052;55.602;38.096;2023-12-28T07:55:19;99824.69;;;1.31;65.87
69780;BME280;57052;55.602;38.096;2023-12-28T07:57:45;99816.53;;;1.26;66.35
69780;BME280;57052;55.602;38.096;2023-12-28T08:00:11;99834.25;;;1.39;65.39
69780;BME280;57052;55.602;38.096;2023-12-28T08:02:37;99832.66;;;1.38;65.42
69780;BME280;57052;55.602;38.096;2023-12-28T08:05:04;99840.25;;;1.34;66.09
69780;BME280;57052;55.602;38.096;2023-12-28T08:07:31;99838.78;;;1.38;65.44
69780;BME280;57052;55.602;38.096;2023-12-28T08:09:57;99787.13;;;1.14;65.60
69780;BME280;57052;55.602;38.096;2023-12-28T08:12:23;99842.22;;;1.45;65.15
69780;BME280;57052;55.602;38.096;2023-12-28T08:14:50;99843.97;;;1.51;65.57
69780;BME280;57052;55.602;38.096;2023-12-28T08:17:16;99845.56;;;1.59;65.67
69780;BME280;57052;55.602;38.096;2023-12-28T08:19:42;99850.28;;;1.57;65.12
69780;BME280;57052;55.602;38.096;2023-12-28T08:22:07;99840.72;;;1.49;65.07
69780;BME280;57052;55.602;38.096;2023-12-28T08:24:33;99856.22;;;1.59;65.71
69780;BME280;57052;55.602;38.096;2023-12-28T08:27:00;99854.13;;;1.61;65.17
69780;BME280;57052;55.602;38.096;2023-12-28T08:29:26;99845.97;;;1.56;65.38
69780;BME280;57052;55.602;38.096;2023-12-28T08:31:52;99856.75;;;1.67;64.86
69780;BME280;57052;55.602;38.096;2023-12-28T08:34:18;99870.09;;;1.67;64.65
69780;BME280;57052;55.602;38.096;2023-12-28T08:36:44;99868.69;;;1.65;64.28
69780;BME280;57052;55.602;38.096;2023-12-28T08:39:10;99873.13;;;1.71;64.95
69780;BME280;57052;55.602;38.096;2023-12-28T08:41:35;99871.03;;;1.73;64.06
69780;BME280;57052;55.602;38.096;2023-12-28T08:44:01;99869.88;;;1.69;64.64
69780;BME280;57052;55.602;38.096;2023-12-28T08:46:27;99865.47;;;1.56;64.48
69780;BME280;57052;55.602;38.096;2023-12-28T08:48:54;99871.88;;;1.55;63.96
69780;BME280;57052;55.602;38.096;2023-12-28T08:51:20;99862.22;;;1.54;64.59
69780;BME280;57052;55.602;38.096;2023-12-28T08:53:46;99870.97;;;1.61;64.40
69780;BME280;57052;55.602;38.096;2023-12-28T08:56:22;99863.03;;;1.55;63.50
69780;BME280;57052;55.602;38.096;2023-12-28T08:58:48;99870.16;;;1.61;64.26
69780;BME280;57052;55.602;38.096;2023-12-28T09:01:21;99879.34;;;1.65;64.39
69780;BME280;57052;55.602;38.096;2023-12-28T09:03:48;99883.44;;;1.67;64.37
69780;BME280;57052;55.602;38.096;2023-12-28T09:06:15;99874.22;;;1.63;64.25
69780;BME280;57052;55.602;38.096;2023-12-28T09:08:46;99887.19;;;1.60;64.74
69780;BME280;57052;55.602;38.096;2023-12-28T09:11:14;99899.78;;;1.53;65.33
69780;BME280;57052;55.602;38.096;2023-12-28T09:13:40;99899.78;;;1.53;65.29
69780;BME280;57052;55.602;38.096;2023-12-28T09:16:09;99896.47;;;1.57;65.45
69780;BME280;57052;55.602;38.096;2023-12-28T09:18:36;99906.69;;;1.60;65.47
69780;BME280;57052;55.602;38.096;2023-12-28T09:21:03;99905.56;;;1.50;64.66
69780;BME280;57052;55.602;38.096;2023-12-28T09:23:31;99883.50;;;1.36;64.33
69780;BME280;57052;55.602;38.096;2023-12-28T09:25:58;99908.06;;;1.45;64.21
69780;BME280;57052;55.602;38.096;2023-12-28T09:28:24;99899.47;;;1.43;63.76
69780;BME280;57052;55.602;38.096;2023-12-28T09:30:50;99898.69;;;1.36;64.38
69780;BME280;57052;55.602;38.096;2023-12-28T09:33:16;99908.25;;;1.43;63.93
69780;BME280;57052;55.602;38.096;2023-12-28T09:35:42;99911.59;;;1.39;64.01
69780;BME280;57052;55.602;38.096;2023-12-28T09:38:08;99907.72;;;1.35;63.51
69780;BME280;57052;55.602;38.096;2023-12-28T09:40:35;99914.84;;;1.41;63.78
69780;BME280;57052;55.602;38.096;2023-12-28T09:43:17;99916.09;;;1.38;63.05
69780;BME280;57052;55.602;38.096;2023-12-28T09:45:47;99923.84;;;1.46;64.04
69780;BME280;57052;55.602;38.096;2023-12-28T09:48:17;99930.81;;;1.47;63.82
69780;BME280;57052;55.602;38.096;2023-12-28T09:50:54;99922.47;;;1.37;62.54
69780;BME280;57052;55.602;38.096;2023-12-28T09:53:24;99926.94;;;1.43;63.41
69780;BME280;57052;55.602;38.096;2023-12-28T09:55:51;99933.50;;;1.41;63.98
69780;BME280;57052;55.602;38.096;2023-12-28T09:58:18;99930.25;;;1.39;63.20
69780;BME280;57052;55.602;38.096;2023-12-28T10:00:45;99934.34;;;1.41;63.93
69780;BME280;57052;55.602;38.096;2023-12-28T10:03:15;99931.47;;;1.43;63.87
69780;BME280;57052;55.602;38.096;2023-12-28T10:05:43;99921.44;;;1.38;63.81
69780;BME280;57052;55.602;38.096;2023-12-28T10:08:11;99942.47;;;1.53;64.14
69780;BME280;57052;55.602;38.096;2023-12-28T10:10:38;99927.75;;;1.44;64.31
69780;BME280;57052;55.602;38.096;2023-12-28T10:13:04;99938.00;;;1.47;64.13
69780;BME280;57052;55.602;38.096;2023-12-28T10:15:35;99939.84;;;1.46;63.56
69780;BME280;57052;55.602;38.096;2023-12-28T10:18:01;99908.56;;;1.35;63.46
69780;BME280;57052;55.602;38.096;2023-12-28T10:20:27;99930.59;;;1.49;63.97
69780;BME280;57052;55.602;38.096;2023-12-28T10:22:53;99932.00;;;1.51;63.60
69780;BME280;57052;55.602;38.096;2023-12-28T10:25:19;99923.56;;;1.54;64.23
69780;BME280;57052;55.602;38.096;2023-12-28T10:27:45;99924.91;;;1.63;63.69
69780;BME280;57052;55.602;38.096;2023-12-28T10:30:10;99905.72;;;1.55;63.68
69780;BME280;57052;55.602;38.096;2023-12-28T10:32:39;99914.03;;;1.65;63.67
69780;BME280;57052;55.602;38.096;2023-12-28T10:35:06;99914.63;;;1.67;64.05
69780;BME280;57052;55.602;38.096;2023-12-28T10:37:32;99919.72;;;1.68;64.60
69780;BME280;57052;55.602;38.096;2023-12-28T10:40:06;99934.31;;;1.48;65.08
69780;BME280;57052;55.602;38.096;2023-12-28T10:42:34;99934.22;;;1.54;64.85
69780;BME280;57052;55.602;38.096;2023-12-28T10:45:04;99916.66;;;1.47;65.49
69780;BME280;57052;55.602;38.096;2023-12-28T10:47:37;99919.09;;;1.48;65.91
69780;BME280;57052;55.602;38.096;2023-12-28T10:50:04;99921.13;;;1.53;65.67
69780;BME280;57052;55.602;38.096;2023-12-28T10:52:32;99931.47;;;1.43;64.97
69780;BME280;57052;55.602;38.096;2023-12-28T10:57:59;99934.16;;;1.36;63.51
69780;BME280;57052;55.602;38.096;2023-12-28T11:00:33;99937.91;;;1.28;64.42
69780;BME280;57052;55.602;38.096;2023-12-28T11:03:03;99936.06;;;1.29;64.19
69780;BME280;57052;55.602;38.096;2023-12-28T11:05:29;99934.00;;;1.31;64.27
69780;BME280;57052;55.602;38.096;2023-12-28T11:07:55;99927.66;;;1.32;64.53
69780;BME280;57052;55.602;38.096;2023-12-28T11:10:26;99930.31;;;1.32;63.78
69780;BME280;57052;55.602;38.096;2023-12-28T11:12:56;99935.59;;;1.39;64.11
69780;BME280;57052;55.602;38.096;2023-12-28T11:15:23;99932.72;;;1.40;63.32
69780;BME280;57052;55.602;38.096;2023-12-28T11:17:49;99917.97;;;1.38;63.29
69780;BME280;57052;55.602;38.096;2023-12-28T11:20:15;99926.94;;;1.43;63.19
69780;BME280;57052;55.602;38.096;2023-12-28T11:22:42;99938.00;;;1.47;62.91
69780;BME280;57052;55.602;38.096;2023-12-28T11:25:16;99901.81;;;1.01;61.11
69780;BME280;57052;55.602;38.096;2023-12-28T11:27:42;99942.75;;;1.38;62.60
69780;BME280;57052;55.602;38.096;2023-12-28T11:30:10;99952.47;;;1.33;61.98
69780;BME280;57052;55.602;38.096;2023-12-28T11:32:36;99925.25;;;1.24;62.52
69780;BME280;57052;55.602;38.096;2023-12-28T11:35:02;99952.66;;;1.31;62.46
69780;BME280;57052;55.602;38.096;2023-12-28T11:37:32;99948.00;;;1.26;61.50
69780;BME280;57052;55.602;38.096;2023-12-28T11:40:09;99945.31;;;1.26;59.49
69780;BME280;57052;55.602;38.096;2023-12-28T11:42:35;99950.91;;;1.18;61.50
69780;BME280;57052;55.602;38.096;2023-12-28T11:45:01;99929.41;;;1.13;61.24
69780;BME280;57052;55.602;38.096;2023-12-28T11:47:29;99938.41;;;1.19;61.55
69780;BME280;57052;55.602;38.096;2023-12-28T11:50:06;99941.47;;;1.22;60.09
69780;BME280;57052;55.602;38.096;2023-12-28T11:52:32;99935.84;;;1.30;61.99
69780;BME280;57052;55.602;38.096;2023-12-28T11:54:59;99938.69;;;1.36;61.18
69780;BME280;57052;55.602;38.096;2023-12-28T11:57:26;99945.44;;;1.38;61.25
69780;BME280;57052;55.602;38.096;2023-12-28T12:00:01;99941.28;;;1.17;60.26
69780;BME280;57052;55.602;38.096;2023-12-28T12:02:31;99963.16;;;1.26;61.57
69780;BME280;57052;55.602;38.096;2023-12-28T12:04:57;99949.13;;;1.12;61.11
69780;BME280;57052;55.602;38.096;2023-12-28T12:07:24;99936.22;;;1.09;60.72
69780;BME280;57052;55.602;38.096;2023-12-28T12:09:55;99971.63;;;1.16;60.50
69780;BME280;57052;55.602;38.096;2023-12-28T12:12:22;99965.06;;;1.19;61.05
69780;BME280;57052;55.602;38.096;2023-12-28T12:14:48;99965.06;;;1.19;61.05
69780;BME280;57052;55.602;38.096;2023-12-28T12:17:14;99960.31;;;1.21;60.75
69780;BME280;57052;55.602;38.096;2023-12-28T12:19:40;99978.97;;;1.21;60.74
69780;BME280;57052;55.602;38.096;2023-12-28T12:22:05;99977.75;;;1.23;60.99
69780;BME280;57052;55.602;38.096;2023-12-28T12:24:32;99974.06;;;1.24;60.44
69780;BME280;57052;55.602;38.096;2023-12-28T12:26:59;99981.44;;;1.22;60.84
69780;BME280;57052;55.602;38.096;2023-12-28T12:29:29;99980.22;;;1.25;60.57
69780;BME280;57052;55.602;38.096;2023-12-28T12:31:56;99982.31;;;1.16;60.13
69780;BME280;57052;55.602;38.096;2023-12-28T12:34:22;99982.91;;;1.18;60.67
69780;BME280;57052;55.602;38.096;2023-12-28T12:36:48;99989.28;;;1.17;60.44
69780;BME280;57052;55.602;38.096;2023-12-28T12:39:17;99988.06;;;1.13;60.84
69780;BME280;57052;55.602;38.096;2023-12-28T12:41:46;99990.94;;;1.12;60.06
69780;BME280;57052;55.602;38.096;2023-12-28T12:44:12;99966.81;;;1.00;60.57
69780;BME280;57052;55.602;38.096;2023-12-28T12:46:38;99988.88;;;1.14;60.66
69780;BME280;57052;55.602;38.096;2023-12-28T12:49:05;99987.63;;;1.16;60.53
69780;BME280;57052;55.602;38.096;2023-12-28T12:51:31;99988.06;;;1.13;60.66
69780;BME280;57052;55.602;38.096;2023-12-28T12:53:57;99982.31;;;1.16;60.61
69780;BME280;57052;55.602;38.096;2023-12-28T12:56:26;99990.28;;;1.16;60.67
69780;BME280;57052;55.602;38.096;2023-12-28T12:58:53;100001.13;;;1.21;61.10
69780;BME280;57052;55.602;38.096;2023-12-28T13:01:19;99986.03;;;1.09;60.38
69780;BME280;57052;55.602;38.096;2023-12-28T13:03:46;100001.59;;;1.12;60.51